Terminal Aerodrome Forecast
Issued by NWS Cleveland, OH

Home | Current Version | Previous Version | Text Only | Print | Product List | Glossary On
Versions: 1 2 3 4 5 6 7 8 9 10 11 12 13 14 15 16 17 18
000
FTUS41 KCLE 271441 AAA
TAFYNG
TAF AMD
KYNG 271441Z 2715/2812 20008KT P6SM BKN015 BKN120
     FM271530 22010G20KT P6SM BKN025
     FM271700 22015G25KT P6SM BKN040
     FM271900 24015G25KT P6SM BKN050
      TEMPO 2722/2801 3SM -TSRA BR OVC035CB
     FM280500 26005KT 6SM BR BKN035 OVC080
     FM280900 31003KT 3SM BR SCT035=

USA.gov is the U.S. government's official web portal to all federal, state and local government web resources and services.